Map

Track Data

SID SEASON NUMBER BASIN SUBBASIN NAME ISO_TIME NATURE LAT LON WMO_WIND WMO_PRES WMO_AGENCY TRACK_TYPE DIST2LAND LANDFALL IFLAG USA_AGENCY USA_ATCF_ID USA_LAT USA_LON USA_RECORD USA_STATUS USA_WIND USA_PRES USA_SSHS USA_R34_NE USA_R34_SE USA_R34_SW USA_R34_NW USA_R50_NE USA_R50_SE USA_R50_SW USA_R50_NW USA_R64_NE USA_R64_SE USA_R64_SW USA_R64_NW USA_POCI USA_ROCI USA_RMW USA_EYE TOKYO_LAT TOKYO_LON TOKYO_GRADE TOKYO_WIND TOKYO_PRES TOKYO_R50_DIR TOKYO_R50_LONG TOKYO_R50_SHORT TOKYO_R30_DIR TOKYO_R30_LONG TOKYO_R30_SHORT TOKYO_LAND CMA_LAT CMA_LON CMA_CAT CMA_WIND CMA_PRES HKO_LAT HKO_LON HKO_CAT HKO_WIND HKO_PRES NEWDELHI_LAT NEWDELHI_LON NEWDELHI_GRADE NEWDELHI_WIND NEWDELHI_PRES NEWDELHI_CI NEWDELHI_DP NEWDELHI_POCI REUNION_LAT REUNION_LON REUNION_TYPE REUNION_WIND REUNION_PRES REUNION_TNUM REUNION_CI REUNION_RMW REUNION_R34_NE REUNION_R34_SE REUNION_R34_SW REUNION_R34_NW REUNION_R50_NE REUNION_R50_SE REUNION_R50_SW REUNION_R50_NW REUNION_R64_NE REUNION_R64_SE REUNION_R64_SW REUNION_R64_NW BOM_LAT BOM_LON BOM_TYPE BOM_WIND BOM_PRES BOM_TNUM BOM_CI BOM_RMW BOM_R34_NE BOM_R34_SE BOM_R34_SW BOM_R34_NW BOM_R50_NE BOM_R50_SE BOM_R50_SW BOM_R50_NW BOM_R64_NE BOM_R64_SE BOM_R64_SW BOM_R64_NW BOM_ROCI BOM_POCI BOM_EYE BOM_POS_METHOD BOM_PRES_METHOD NADI_LAT NADI_LON NADI_CAT NADI_WIND NADI_PRES WELLINGTON_LAT WELLINGTON_LON WELLINGTON_WIND WELLINGTON_PRES DS824_LAT DS824_LON DS824_STAGE DS824_WIND DS824_PRES TD9636_LAT TD9636_LON TD9636_STAGE TD9636_WIND TD9636_PRES TD9635_LAT TD9635_LON TD9635_WIND TD9635_PRES TD9635_ROCI NEUMANN_LAT NEUMANN_LON NEUMANN_CLASS NEUMANN_WIND NEUMANN_PRES MLC_LAT MLC_LON MLC_CLASS MLC_WIND MLC_PRES USA_GUST BOM_GUST BOM_GUST_PER REUNION_GUST REUNION_GUST_PER USA_SEAHGT USA_SEARAD_NE USA_SEARAD_SE USA_SEARAD_SW USA_SEARAD_NW STORM_SPEED STORM_DIR
1937227N22137 1937 31 WP MM NOT_NAMED 1937-08-15 10:00:00 NR 21.5000 137.400 main 1252 1252 __________O___ -1 21.5000 137.400 2 1 321
1937227N22137 1937 31 WP MM NOT_NAMED 1937-08-15 12:00:00 NR 21.5307 137.371 main 1252 1238 __________P___ -1 21.5307 137.371 2 2 315
1937227N22137 1937 31 WP MM NOT_NAMED 1937-08-15 15:00:00 NR 21.6154 137.283 main 1238 1208 __________P___ -1 21.6154 137.283 2 4 315
1937227N22137 1937 31 WP MM NOT_NAMED 1937-08-15 18:00:00 NR 21.7992 137.078 main 1208 1158 __________P___ -1 21.7992 137.078 2 8 313
1937227N22137 1937 31 WP MM NOT_NAMED 1937-08-15 21:00:00 NR 22.1409 136.685 main 1158 1128 __________P___ -1 22.1409 136.685 2 11 313
1937227N22137 1937 31 WP MM NOT_NAMED 1937-08-15 22:00:00 NR 22.3000 136.500 main 1128 1065 __________O___ -1 22.3000 136.500 2 16 313
1937227N22137 1937 31 WP MM NOT_NAMED 1937-08-16 00:00:00 NR 22.6910 136.038 main 1065 957 __________P___ -1 22.6910 136.038 2 20 312
1937227N22137 1937 31 WP MM NOT_NAMED 1937-08-16 03:00:00 NR 23.4097 135.154 main 957 829 __________P___ -1 23.4097 135.154 2 23 310
1937227N22137 1937 31 WP MM NOT_NAMED 1937-08-16 06:00:00 NR 24.2003 134.109 main 829 706 __________P___ -1 24.2003 134.109 2 25 308
1937227N22137 1937 31 WP MM NOT_NAMED 1937-08-16 09:00:00 NR 24.9664 132.980 main 706 676 __________P___ -1 24.9664 132.980 2 25 306
1937227N22137 1937 31 WP MM NOT_NAMED 1937-08-16 10:00:00 NR 25.2000 132.600 main 673 614 __________O___ -1 25.2000 132.600 2 24 302
1937227N22137 1937 31 WP MM NOT_NAMED 1937-08-16 12:00:00 NR 25.6086 131.859 main 614 535 __________P___ -1 25.6086 131.859 2 23 299
1937227N22137 1937 31 WP MM NOT_NAMED 1937-08-16 15:00:00 NR 26.1593 130.715 main 535 498 __________P___ -1 26.1593 130.715 2 23 296
1937227N22137 1937 31 WP MM NOT_NAMED 1937-08-16 18:00:00 NR 26.6257 129.585 main 502 489 __________P___ -1 26.6257 129.585 2 21 293
1937227N22137 1937 31 WP MM NOT_NAMED 1937-08-16 21:00:00 NR 26.9981 128.526 main 494 489 __________P___ -1 26.9981 128.526 2 20 291
1937227N22137 1937 31 WP MM NOT_NAMED 1937-08-16 22:00:00 NR 27.1000 128.200 main 497 494 __________O___ -1 27.1000 128.200 2 17 289
1937227N22137 1937 31 WP MM NOT_NAMED 1937-08-17 00:00:00 NR 27.2786 127.619 main 502 502 __________P___ -1 27.2786 127.619 2 15 287
1937227N22137 1937 31 WP MM NOT_NAMED 1937-08-17 03:00:00 NR 27.4674 126.840 main 506 438 __________P___ -1 27.4674 126.840 2 14 283
1937227N22137 1937 31 WP MM NOT_NAMED 1937-08-17 06:00:00 NR 27.5894 126.128 main 438 371 __________P___ -1 27.5894 126.128 2 13 279
1937227N22137 1937 31 WP MM NOT_NAMED 1937-08-17 09:00:00 NR 27.6746 125.435 main 371 354 __________P___ -1 27.6746 125.435 2 12 278
1937227N22137 1937 31 WP MM NOT_NAMED 1937-08-17 10:00:00 NR 27.7000 125.200 main 354 306 __________O___ -1 27.7000 125.200 2 13 277
1937227N22137 1937 31 WP MM NOT_NAMED 1937-08-17 12:00:00 NR 27.7510 124.715 main 306 241 __________P___ -1 27.7510 124.715 2 13 277
1937227N22137 1937 31 WP MM NOT_NAMED 1937-08-17 15:00:00 NR 27.8279 123.957 main 241 163 __________P___ -1 27.8279 123.957 2 14 276
1937227N22137 1937 31 WP MM NOT_NAMED 1937-08-17 18:00:00 NR 27.9037 123.171 main 163 85 __________P___ -1 27.9037 123.171 2 14 276
1937227N22137 1937 31 WP MM NOT_NAMED 1937-08-17 21:00:00 NR 27.9766 122.369 main 85 59 __________P___ -1 27.9766 122.369 2 14 276
1937227N22137 1937 31 WP MM NOT_NAMED 1937-08-17 22:00:00 NR 28.0000 122.100 main 59 __________O___ -1 28.0000 122.100 2 14 276

Digital Typhoon Data and Search

About IBTrACS Database

This database is a web-friendly format of International Best Track Archive for Climate Stewardship (IBTrACS), a global best track data archive curated by NOAA dating back to 1842.

Updated: 2021-12-01